createdAt,value
2023-05-01T00:01:21.018Z,16.26
2023-05-01T00:04:25.725Z,16.21
2023-05-01T00:07:31.204Z,16.20
2023-05-01T00:10:36.364Z,16.21
2023-05-01T00:13:38.573Z,16.22
2023-05-01T00:16:40.806Z,16.22
2023-05-01T00:19:43.098Z,16.22
2023-05-01T00:22:45.229Z,16.24
2023-05-01T00:25:47.501Z,16.23
2023-05-01T00:28:50.661Z,16.15
2023-05-01T00:31:53.357Z,16.15
2023-05-01T00:34:57.710Z,16.11
2023-05-01T00:38:00.147Z,16.10
2023-05-01T00:41:02.349Z,16.02
2023-05-01T00:44:04.832Z,16.04
2023-05-01T00:47:07.072Z,16.00
2023-05-01T00:50:09.650Z,15.96
2023-05-01T00:53:12.470Z,15.92
2023-05-01T00:56:15.459Z,15.88
2023-05-01T00:59:17.959Z,15.85
2023-05-01T01:02:20.282Z,15.86
2023-05-01T01:05:24.895Z,15.75
2023-05-01T01:08:32.580Z,15.81
2023-05-01T01:11:56.460Z,15.79
2023-05-01T01:15:08.092Z,15.73
2023-05-01T01:18:18.165Z,15.64
2023-05-01T01:21:27.538Z,15.64
2023-05-01T01:24:57.526Z,15.62
2023-05-01T01:28:17.832Z,15.60
2023-05-01T01:31:34.091Z,15.61
2023-05-01T01:34:52.239Z,15.54
2023-05-01T01:38:01.777Z,15.51
2023-05-01T01:41:13.774Z,15.46
2023-05-01T01:44:21.284Z,15.51
2023-05-01T01:47:28.385Z,15.48
2023-05-01T01:50:31.939Z,15.44
2023-05-01T01:53:35.894Z,15.49
2023-05-01T01:56:38.361Z,15.51
2023-05-01T01:59:41.715Z,15.50
2023-05-01T02:02:44.485Z,15.52
2023-05-01T02:05:47.606Z,15.53
2023-05-01T02:08:50.127Z,15.56
2023-05-01T02:11:54.009Z,15.58
2023-05-01T02:14:58.771Z,15.59
2023-05-01T02:18:05.136Z,15.61
2023-05-01T02:21:07.776Z,15.68
2023-05-01T02:24:12.799Z,15.69
2023-05-01T02:27:24.019Z,15.65
2023-05-01T02:30:26.326Z,15.63
2023-05-01T02:33:28.499Z,15.65
2023-05-01T02:36:32.050Z,15.58
2023-05-01T02:39:35.157Z,15.59
2023-05-01T02:42:37.872Z,15.62
2023-05-01T02:45:41.589Z,15.62
2023-05-01T02:48:44.897Z,15.67
2023-05-01T02:51:48.493Z,15.74
2023-05-01T02:54:50.860Z,15.72
2023-05-01T02:57:55.528Z,15.84
2023-05-01T03:00:57.726Z,15.81
2023-05-01T03:04:00.654Z,15.82
2023-05-01T03:07:04.663Z,15.90
2023-05-01T03:10:07.861Z,15.86
2023-05-01T03:13:11.200Z,15.87
2023-05-01T03:16:13.457Z,15.79
2023-05-01T03:19:15.660Z,15.80
2023-05-01T03:22:17.986Z,15.79
2023-05-01T03:25:20.115Z,15.75
2023-05-01T03:28:23.699Z,15.79
2023-05-01T03:31:28.010Z,15.76
2023-05-01T03:34:31.472Z,15.80
2023-05-01T03:37:34.104Z,15.77
2023-05-01T03:40:36.353Z,15.73
2023-05-01T03:43:57.196Z,15.81
2023-05-01T03:47:12.792Z,16.11
2023-05-01T03:50:16.934Z,16.38
2023-05-01T03:53:21.262Z,16.63
2023-05-01T03:56:25.769Z,16.81
2023-05-01T03:59:28.198Z,17.00
2023-05-01T04:02:31.540Z,17.22
2023-05-01T04:05:34.267Z,17.37
2023-05-01T04:08:38.426Z,17.07
2023-05-01T04:11:40.795Z,16.87
2023-05-01T04:14:44.462Z,17.29
2023-05-01T04:17:47.980Z,17.65
2023-05-01T04:20:51.222Z,17.81
2023-05-01T04:23:54.066Z,18.05
2023-05-01T04:26:56.281Z,18.18
2023-05-01T04:29:58.771Z,17.96
2023-05-01T04:33:01.938Z,17.86
2023-05-01T04:36:05.145Z,18.11
2023-05-01T04:39:07.649Z,18.27
2023-05-01T04:42:09.828Z,18.37
2023-05-01T04:45:12.852Z,18.31
2023-05-01T04:48:16.015Z,18.27
2023-05-01T04:51:18.352Z,18.06
2023-05-01T04:54:24.101Z,17.84
2023-05-01T04:57:26.692Z,17.68
2023-05-01T05:00:29.318Z,17.48
2023-05-01T05:03:33.030Z,17.46
2023-05-01T05:06:35.575Z,17.34
2023-05-01T05:09:38.350Z,17.23
2023-05-01T05:12:40.797Z,17.23
2023-05-01T05:15:43.759Z,17.25
2023-05-01T05:18:47.312Z,17.23
2023-05-01T05:21:49.505Z,17.21
2023-05-01T05:24:57.569Z,17.25
2023-05-01T05:28:00.502Z,17.32
2023-05-01T05:31:03.183Z,17.35
2023-05-01T05:34:05.482Z,17.43
2023-05-01T05:37:08.396Z,17.48
2023-05-01T05:40:17.797Z,17.49
2023-05-01T05:43:30.971Z,17.56
2023-05-01T05:46:33.261Z,17.57
2023-05-01T05:49:36.064Z,17.58
2023-05-01T05:52:38.306Z,17.67
2023-05-01T05:55:41.136Z,17.72
2023-05-01T05:58:43.565Z,17.76
2023-05-01T06:01:45.785Z,17.77
2023-05-01T06:04:48.158Z,17.77
2023-05-01T06:07:51.978Z,17.79
2023-05-01T06:10:54.347Z,17.84
2023-05-01T06:13:58.143Z,17.90
2023-05-01T06:17:00.412Z,18.01
2023-05-01T06:20:05.837Z,18.06
2023-05-01T06:23:09.708Z,18.12
2023-05-01T06:26:38.035Z,18.20
2023-05-01T06:29:40.431Z,18.19
2023-05-01T06:32:43.838Z,18.20
2023-05-01T06:35:46.914Z,18.26
2023-05-01T06:38:49.336Z,18.25
2023-05-01T06:41:51.576Z,18.24
2023-05-01T06:45:06.450Z,18.35
2023-05-01T06:48:08.684Z,18.34
2023-05-01T06:51:11.270Z,18.34
2023-05-01T06:54:13.431Z,18.37
2023-05-01T06:57:15.646Z,18.47
2023-05-01T07:00:18.446Z,18.48
2023-05-01T07:03:21.203Z,18.57
2023-05-01T07:06:23.586Z,18.63
2023-05-01T07:09:25.795Z,18.64
2023-05-01T07:12:29.656Z,18.76
2023-05-01T07:15:31.847Z,18.80
2023-05-01T07:18:34.775Z,18.81
2023-05-01T07:21:36.950Z,18.77
2023-05-01T07:24:39.117Z,18.81
2023-05-01T07:27:41.621Z,18.86
2023-05-01T07:30:43.874Z,18.93
2023-05-01T07:33:46.061Z,19.00
2023-05-01T07:36:48.222Z,19.01
2023-05-01T07:39:50.561Z,19.11
2023-05-01T07:42:55.614Z,19.12
2023-05-01T07:46:00.231Z,19.14
2023-05-01T07:49:02.636Z,19.19
2023-05-01T07:52:07.649Z,19.21
2023-05-01T07:55:10.127Z,19.22
2023-05-01T07:58:12.282Z,19.24
2023-05-01T08:01:14.512Z,19.29
2023-05-01T08:04:17.743Z,19.30
2023-05-01T08:07:19.960Z,19.30
2023-05-01T08:10:22.097Z,19.37
2023-05-01T08:13:24.330Z,19.38
2023-05-01T08:16:26.776Z,19.43
2023-05-01T08:19:29.012Z,19.47
2023-05-01T08:22:31.944Z,19.52
2023-05-01T08:25:34.174Z,19.49
2023-05-01T08:28:36.430Z,19.57
2023-05-01T08:31:39.420Z,19.57
2023-05-01T08:34:41.624Z,19.61
2023-05-01T08:37:43.746Z,19.64
2023-05-01T08:40:56.994Z,19.71
2023-05-01T08:44:01.625Z,19.74
2023-05-01T08:47:16.749Z,19.79
2023-05-01T08:50:19.394Z,19.85
2023-05-01T08:53:22.777Z,19.88
2023-05-01T08:56:25.743Z,19.91
2023-05-01T08:59:28.706Z,19.96
2023-05-01T09:02:31.356Z,20.00
2023-05-01T09:05:33.712Z,20.00
2023-05-01T09:08:36.024Z,20.09
2023-05-01T09:11:39.667Z,20.13
2023-05-01T09:14:41.852Z,20.12
2023-05-01T09:17:44.931Z,20.19
2023-05-01T09:20:47.600Z,20.22
2023-05-01T09:23:53.849Z,20.32
2023-05-01T09:26:58.144Z,20.32
2023-05-01T09:30:00.437Z,20.35
2023-05-01T09:33:12.610Z,20.39
2023-05-01T09:36:17.424Z,20.42
2023-05-01T09:39:23.059Z,20.49
2023-05-01T09:42:25.174Z,20.49
2023-05-01T09:45:27.945Z,20.54
2023-05-01T09:48:33.253Z,20.55
2023-05-01T09:51:37.093Z,20.56
2023-05-01T09:54:39.300Z,20.58
2023-05-01T09:57:43.004Z,20.63
2023-05-01T10:00:51.753Z,20.68
2023-05-01T10:03:55.200Z,20.73
2023-05-01T10:06:57.907Z,20.76
2023-05-01T10:10:24.253Z,20.81
2023-05-01T10:13:26.801Z,20.88
2023-05-01T10:16:30.547Z,20.90
2023-05-01T10:19:32.911Z,20.91
2023-05-01T10:22:35.223Z,20.96
2023-05-01T10:25:38.084Z,21.00
2023-05-01T10:28:40.871Z,21.01
2023-05-01T10:31:43.078Z,21.06
2023-05-01T10:35:02.251Z,21.09
2023-05-01T10:38:18.451Z,21.12
2023-05-01T10:41:57.740Z,21.19
2023-05-01T10:45:29.964Z,21.22
2023-05-01T10:48:38.374Z,21.28
2023-05-01T10:51:58.898Z,21.33
2023-05-01T10:55:36.138Z,21.33
2023-05-01T10:58:40.957Z,21.37
2023-05-01T11:01:48.506Z,21.36
2023-05-01T11:04:51.721Z,21.40
2023-05-01T11:08:31.748Z,21.44
2023-05-01T11:11:33.944Z,21.46
2023-05-01T11:14:56.666Z,21.50
2023-05-01T11:18:03.917Z,21.52
2023-05-01T11:21:06.385Z,21.58
2023-05-01T11:24:09.211Z,21.63
2023-05-01T11:27:13.683Z,21.71
2023-05-01T11:30:16.328Z,21.76
2023-05-01T11:33:23.233Z,21.77
2023-05-01T11:36:27.269Z,21.84
2023-05-01T11:39:29.428Z,21.87
2023-05-01T11:42:31.617Z,21.91
2023-05-01T11:45:35.822Z,21.95
2023-05-01T11:48:38.021Z,21.97
2023-05-01T11:51:40.232Z,21.96
2023-05-01T11:54:48.631Z,22.01
2023-05-01T11:57:52.473Z,22.10
2023-05-01T12:00:54.704Z,22.12
2023-05-01T12:03:57.382Z,22.19
2023-05-01T12:06:59.736Z,22.32
2023-05-01T12:10:02.109Z,22.34
2023-05-01T12:13:06.123Z,22.42
2023-05-01T12:16:08.693Z,22.48
2023-05-01T12:19:13.761Z,22.49
2023-05-01T12:22:16.066Z,22.54
2023-05-01T12:25:19.461Z,22.64
2023-05-01T12:28:21.707Z,22.68
2023-05-01T12:31:25.034Z,22.76
2023-05-01T12:34:32.750Z,22.82
2023-05-01T12:37:35.244Z,22.88
2023-05-01T12:40:40.218Z,22.95
2023-05-01T12:43:44.259Z,22.98
2023-05-01T12:46:54.057Z,23.02
2023-05-01T12:50:03.182Z,23.06
2023-05-01T12:53:07.153Z,23.09
2023-05-01T12:56:09.472Z,23.19
2023-05-01T12:59:23.948Z,23.20
2023-05-01T13:02:30.514Z,23.23
2023-05-01T13:05:32.736Z,23.24
2023-05-01T13:08:38.440Z,23.26
2023-05-01T13:11:40.700Z,23.34
2023-05-01T13:14:43.066Z,23.38
2023-05-01T13:17:45.292Z,23.43
2023-05-01T13:20:47.466Z,23.44
2023-05-01T13:24:01.656Z,23.51
2023-05-01T13:27:05.365Z,23.50
2023-05-01T13:30:08.161Z,23.47
2023-05-01T13:33:11.030Z,23.52
2023-05-01T13:36:25.006Z,23.56
2023-05-01T13:39:28.309Z,23.66
2023-05-01T13:42:30.663Z,23.70
2023-05-01T13:45:32.788Z,23.79
2023-05-01T13:48:34.944Z,23.86
2023-05-01T13:51:42.712Z,23.93
2023-05-01T13:54:45.958Z,23.84
2023-05-01T13:57:48.187Z,23.91
2023-05-01T14:00:50.447Z,24.04
2023-05-01T14:03:57.092Z,24.09
2023-05-01T14:07:01.298Z,24.14
2023-05-01T14:10:03.827Z,24.27
2023-05-01T14:13:06.727Z,24.35
2023-05-01T14:16:11.086Z,24.47
2023-05-01T14:19:16.308Z,24.64
2023-05-01T14:22:18.478Z,24.81
2023-05-01T14:25:25.220Z,24.95
2023-05-01T14:28:27.568Z,25.15
2023-05-01T14:31:30.378Z,25.32
2023-05-01T14:34:33.388Z,25.31
2023-05-01T14:37:35.691Z,25.31
2023-05-01T14:40:40.219Z,25.28
2023-05-01T14:43:43.891Z,25.25
2023-05-01T14:46:51.437Z,25.16
2023-05-01T14:49:57.047Z,25.03
2023-05-01T14:53:00.881Z,24.97
2023-05-01T14:56:03.072Z,24.84
2023-05-01T14:59:05.407Z,24.71
2023-05-01T15:02:07.858Z,24.72
2023-05-01T15:05:10.236Z,24.70
2023-05-01T15:08:12.464Z,24.66
2023-05-01T15:11:14.661Z,24.65
2023-05-01T15:14:16.864Z,24.63
2023-05-01T15:17:19.001Z,24.59
2023-05-01T15:20:21.124Z,24.60
2023-05-01T15:23:25.066Z,24.57
2023-05-01T15:26:27.287Z,24.49
2023-05-01T15:29:29.418Z,24.41
2023-05-01T15:32:32.078Z,24.38
2023-05-01T15:35:34.529Z,24.34
2023-05-01T15:38:36.684Z,24.30
2023-05-01T15:41:38.991Z,24.32
2023-05-01T15:44:42.038Z,24.35
2023-05-01T15:47:44.776Z,24.36
2023-05-01T15:50:48.947Z,24.32
2023-05-01T15:53:51.691Z,24.34
2023-05-01T15:56:54.014Z,24.30
2023-05-01T15:59:56.680Z,24.22
2023-05-01T16:03:01.124Z,24.12
2023-05-01T16:06:03.730Z,24.12
2023-05-01T16:09:05.882Z,24.08
2023-05-01T16:12:08.277Z,23.98
2023-05-01T16:15:12.006Z,23.90
2023-05-01T16:18:20.839Z,23.82
2023-05-01T16:21:24.333Z,23.76
2023-05-01T16:24:26.722Z,23.69
2023-05-01T16:27:29.064Z,23.65
2023-05-01T16:30:31.201Z,23.56
2023-05-01T16:33:33.769Z,23.47
2023-05-01T16:36:37.120Z,23.38
2023-05-01T16:39:39.293Z,23.31
2023-05-01T16:42:42.437Z,23.25
2023-05-01T16:45:46.690Z,23.18
2023-05-01T16:48:48.831Z,23.15
2023-05-01T16:51:51.004Z,23.05
2023-05-01T16:54:54.401Z,22.99
2023-05-01T16:57:56.652Z,22.93
2023-05-01T17:00:59.643Z,22.85
2023-05-01T17:04:02.205Z,22.89
2023-05-01T17:07:04.448Z,22.87
2023-05-01T17:10:07.730Z,22.80
2023-05-01T17:13:09.894Z,22.75
2023-05-01T17:16:12.097Z,22.74
2023-05-01T17:19:14.331Z,22.59
2023-05-01T17:22:16.682Z,22.52
2023-05-01T17:25:18.903Z,22.42
2023-05-01T17:28:21.691Z,22.32
2023-05-01T17:31:23.869Z,22.28
2023-05-01T17:34:26.119Z,22.16
2023-05-01T17:37:28.326Z,22.08
2023-05-01T17:40:32.250Z,21.98
2023-05-01T17:43:34.415Z,21.90
2023-05-01T17:46:38.842Z,21.83
2023-05-01T17:49:41.447Z,21.70
2023-05-01T17:52:45.069Z,21.66
2023-05-01T17:55:47.329Z,21.57
2023-05-01T17:58:49.519Z,21.45
2023-05-01T18:01:51.832Z,21.33
2023-05-01T18:04:55.221Z,21.28
2023-05-01T18:07:57.478Z,21.23
2023-05-01T18:10:59.637Z,21.18
2023-05-01T18:14:02.385Z,21.10
2023-05-01T18:17:04.669Z,21.02
2023-05-01T18:20:07.505Z,20.96
2023-05-01T18:23:10.128Z,20.92
2023-05-01T18:26:12.346Z,20.84
2023-05-01T18:29:14.550Z,20.77
2023-05-01T18:32:17.382Z,20.73
2023-05-01T18:35:20.491Z,20.68
2023-05-01T18:38:22.656Z,20.63
2023-05-01T18:41:25.716Z,20.57
2023-05-01T18:44:28.006Z,20.56
2023-05-01T18:47:32.330Z,20.50
2023-05-01T18:50:34.773Z,20.46
2023-05-01T18:53:36.940Z,20.38
2023-05-01T18:56:39.062Z,20.35
2023-05-01T18:59:43.029Z,20.28
2023-05-01T19:02:51.295Z,20.22
2023-05-01T19:05:53.591Z,20.15
2023-05-01T19:08:55.815Z,20.10
2023-05-01T19:11:57.967Z,20.07
2023-05-01T19:15:00.278Z,20.06
2023-05-01T19:18:02.698Z,19.96
2023-05-01T19:21:05.465Z,19.97
2023-05-01T19:24:08.160Z,19.94
2023-05-01T19:27:11.617Z,19.91
2023-05-01T19:30:15.129Z,19.90
2023-05-01T19:33:17.390Z,19.86
2023-05-01T19:36:20.749Z,19.84
2023-05-01T19:39:23.475Z,19.83
2023-05-01T19:42:25.691Z,19.79
2023-05-01T19:45:27.940Z,19.73
2023-05-01T19:48:30.149Z,19.62
2023-05-01T19:51:32.299Z,19.61
2023-05-01T19:54:34.516Z,19.55
2023-05-01T19:57:36.737Z,19.50
2023-05-01T20:00:38.905Z,19.41
2023-05-01T20:03:41.219Z,19.38
2023-05-01T20:06:43.563Z,19.38
2023-05-01T20:09:45.934Z,19.34
2023-05-01T20:12:48.066Z,19.28
2023-05-01T20:15:51.373Z,19.23
2023-05-01T20:18:53.654Z,19.22
2023-05-01T20:21:56.066Z,19.21
2023-05-01T20:24:58.220Z,19.13
2023-05-01T20:28:03.091Z,19.11
2023-05-01T20:31:05.654Z,19.08
2023-05-01T20:34:07.900Z,19.09
2023-05-01T20:37:10.066Z,19.00
2023-05-01T20:40:12.798Z,18.97
2023-05-01T20:43:15.085Z,18.97
2023-05-01T20:46:18.078Z,18.95
2023-05-01T20:49:20.772Z,18.90
2023-05-01T20:52:23.298Z,18.92
2023-05-01T20:55:26.220Z,18.88
2023-05-01T20:58:28.453Z,18.83
2023-05-01T21:01:33.906Z,18.83
2023-05-01T21:04:37.989Z,18.81
2023-05-01T21:07:43.162Z,18.80
2023-05-01T21:10:45.404Z,18.74
2023-05-01T21:13:47.581Z,18.78
2023-05-01T21:16:49.864Z,18.76
2023-05-01T21:19:55.104Z,18.76
2023-05-01T21:22:57.340Z,18.68
2023-05-01T21:25:59.503Z,18.69
2023-05-01T21:29:01.719Z,18.63
2023-05-01T21:32:04.497Z,18.62
2023-05-01T21:35:07.928Z,18.62
2023-05-01T21:38:10.594Z,18.62
2023-05-01T21:41:15.089Z,18.61
2023-05-01T21:44:17.880Z,18.61
2023-05-01T21:47:20.328Z,18.61
2023-05-01T21:50:22.737Z,18.55
2023-05-01T21:53:26.284Z,18.53
2023-05-01T21:56:28.721Z,18.47
2023-05-01T21:59:37.752Z,18.51
2023-05-01T22:02:41.990Z,18.48
2023-05-01T22:05:44.476Z,18.48
2023-05-01T22:08:46.693Z,18.52
2023-05-01T22:11:49.022Z,18.54
2023-05-01T22:14:51.220Z,18.52
2023-05-01T22:17:53.535Z,18.54
2023-05-01T22:20:55.801Z,18.53
2023-05-01T22:23:57.984Z,18.51
2023-05-01T22:27:00.429Z,18.48
2023-05-01T22:30:03.902Z,18.44
2023-05-01T22:33:06.634Z,18.44
2023-05-01T22:36:08.893Z,18.42
2023-05-01T22:39:11.475Z,18.39
2023-05-01T22:42:13.794Z,18.41
2023-05-01T22:45:16.098Z,18.38
2023-05-01T22:48:18.364Z,18.35
2023-05-01T22:51:20.677Z,18.31
2023-05-01T22:54:23.224Z,18.28
2023-05-01T22:57:25.446Z,18.22
2023-05-01T23:00:27.710Z,18.20
2023-05-01T23:03:30.064Z,18.17
2023-05-01T23:06:32.823Z,18.15
2023-05-01T23:09:35.047Z,18.12
2023-05-01T23:12:42.403Z,18.10
2023-05-01T23:15:47.646Z,18.12
2023-05-01T23:18:49.915Z,18.01
2023-05-01T23:22:07.137Z,17.95
2023-05-01T23:25:13.610Z,17.87
2023-05-01T23:28:23.749Z,17.86
2023-05-01T23:31:27.273Z,17.88
2023-05-01T23:34:29.755Z,17.82
2023-05-01T23:37:32.013Z,17.85
2023-05-01T23:40:35.097Z,17.78
2023-05-01T23:43:38.654Z,17.78
2023-05-01T23:46:41.161Z,17.73
2023-05-01T23:49:43.479Z,17.75
2023-05-01T23:52:46.013Z,17.70
2023-05-01T23:55:48.195Z,17.71
2023-05-01T23:58:50.315Z,17.71
